Time;durP1;ratioP1;P1;durP2;ratioP2;P2;SDS_P1;SDS_P2;PMS_P1;PMS_P2;Temp;Humidity;BMP_temperature;BMP_pressure;BME280_temperature;BME280_humidity;BME280_pressure;Samples;Min_cycle;Max_cycle;Signal;HPM_P1;HPM_P2
2022/10/31 00:01:53;;;;;;;;;;;;;;;12.81;100.00;101991.13;5036200;28;19916;-44
2022/10/31 00:04:18;;;;;;;;;;;;;;;12.82;100.00;101998.19;5032976;28;19921;-46
2022/10/31 00:06:43;;;;;;;;;;;;;;;12.84;100.00;102004.25;5035898;28;19917;-43
2022/10/31 00:09:09;;;;;;;;;;;;;;;12.83;100.00;102000.72;5037222;28;20298;-46
2022/10/31 00:11:34;;;;;;;;;;;;;;;12.80;100.00;102005.53;5035504;28;19939;-45
2022/10/31 00:13:59;;;;;;;;;;;;;;;12.75;100.00;102007.81;5035926;28;19931;-44
2022/10/31 00:16:25;;;;;;;;;;;;;;;12.73;100.00;102007.09;5035741;28;19916;-46
2022/10/31 00:18:50;;;;;;;;;;;;;;;12.69;100.00;102007.41;5036570;28;19923;-44
2022/10/31 00:21:16;;;;;;;;;;;;;;;12.68;100.00;102005.72;5034321;28;19916;-42
2022/10/31 00:23:41;;;;;;;;;;;;;;;12.68;100.00;102011.06;5036671;28;20159;-42
2022/10/31 00:26:06;;;;;;;;;;;;;;;12.70;100.00;102013.63;5036353;28;19917;-42
2022/10/31 00:28:32;;;;;;;;;;;;;;;12.71;100.00;102014.44;5036552;28;19931;-43
2022/10/31 00:31:04;;;;;;;;;;;;;;;12.71;100.00;102015.28;5035121;28;19924;-45
2022/10/31 00:33:29;;;;;;;;;;;;;;;12.71;100.00;102017.97;5036979;28;19913;-45
2022/10/31 00:35:54;;;;;;;;;;;;;;;12.72;100.00;102018.84;5034194;28;20272;-44
2022/10/31 00:38:20;;;;;;;;;;;;;;;12.70;100.00;102010.94;5020461;28;20685;-43
2022/10/31 00:40:45;;;;;;;;;;;;;;;12.71;100.00;102007.25;5032433;28;20150;-42
2022/10/31 00:43:10;;;;;;;;;;;;;;;12.71;100.00;102012.59;5036324;28;19952;-43
2022/10/31 00:45:35;;;;;;;;;;;;;;;12.71;100.00;102001.88;5034955;28;20300;-46
2022/10/31 00:48:00;;;;;;;;;;;;;;;12.71;100.00;101999.19;5035805;28;19916;-42
2022/10/31 00:50:25;;;;;;;;;;;;;;;12.71;100.00;101993.00;5034293;28;19925;-43
2022/10/31 00:52:51;;;;;;;;;;;;;;;12.68;100.00;101996.84;5035618;28;20188;-44
2022/10/31 00:55:16;;;;;;;;;;;;;;;12.65;100.00;102002.50;5034939;28;20109;-44
2022/10/31 00:57:41;;;;;;;;;;;;;;;12.63;100.00;102004.47;5036074;28;20205;-45
2022/10/31 01:00:07;;;;;;;;;;;;;;;12.60;100.00;102005.59;5034914;28;20491;-42
2022/10/31 01:02:32;;;;;;;;;;;;;;;12.53;100.00;101993.78;5035491;28;19920;-44
2022/10/31 01:04:57;;;;;;;;;;;;;;;12.56;100.00;102006.03;5021359;28;20291;-47
2022/10/31 01:07:22;;;;;;;;;;;;;;;12.56;100.00;102006.03;5020939;28;20333;-43
2022/10/31 01:09:48;;;;;;;;;;;;;;;12.51;100.00;102006.50;5035004;28;20008;-41
2022/10/31 01:12:13;;;;;;;;;;;;;;;12.48;100.00;102004.94;5035285;28;19988;-42
2022/10/31 01:14:38;;;;;;;;;;;;;;;12.43;100.00;101991.13;5033847;28;19917;-44
2022/10/31 01:17:03;;;;;;;;;;;;;;;12.40;100.00;101980.69;5034768;28;19959;-43
2022/10/31 01:19:28;;;;;;;;;;;;;;;12.38;100.00;101988.03;5034265;28;20252;-46
2022/10/31 01:21:55;;;;;;;;;;;;;;;12.38;100.00;101971.13;5034525;28;19947;-43
2022/10/31 01:24:21;;;;;;;;;;;;;;;12.37;100.00;101969.41;5034541;28;20399;-44
2022/10/31 01:26:47;;;;;;;;;;;;;;;12.35;100.00;101969.56;5035204;28;19927;-44
2022/10/31 01:29:12;;;;;;;;;;;;;;;12.34;100.00;101985.78;5035230;28;20038;-47
2022/10/31 01:31:38;;;;;;;;;;;;;;;12.31;100.00;101989.59;5030269;28;19939;-45
2022/10/31 01:34:04;;;;;;;;;;;;;;;12.27;100.00;101990.88;5040894;28;19916;-43
2022/10/31 01:36:33;;;;;;;;;;;;;;;12.24;100.00;101985.81;5041822;28;20399;-43
2022/10/31 01:39:00;;;;;;;;;;;;;;;12.23;100.00;101989.47;5042087;28;20395;-43
2022/10/31 01:41:31;;;;;;;;;;;;;;;12.21;100.00;101983.44;5024222;28;19912;-44
2022/10/31 01:43:56;;;;;;;;;;;;;;;12.19;100.00;101990.78;5041395;28;19919;-45
2022/10/31 01:46:27;;;;;;;;;;;;;;;12.16;100.00;101991.06;5041423;28;19916;-43
2022/10/31 01:48:53;;;;;;;;;;;;;;;12.11;100.00;101980.75;5041419;28;20388;-44
2022/10/31 01:51:20;;;;;;;;;;;;;;;12.10;100.00;101989.78;5040568;28;19917;-45
2022/10/31 01:53:46;;;;;;;;;;;;;;;12.05;100.00;101992.03;5040497;28;19978;-44
2022/10/31 01:56:12;;;;;;;;;;;;;;;12.00;100.00;101987.13;5040425;28;19917;-41
2022/10/31 01:58:39;;;;;;;;;;;;;;;11.95;100.00;101986.72;5042344;28;19913;-44
2022/10/31 02:01:04;;;;;;;;;;;;;;;11.91;100.00;101987.97;5026733;28;19995;-46
2022/10/31 02:03:30;;;;;;;;;;;;;;;11.88;100.00;101993.56;5042628;28;20585;-44
2022/10/31 02:05:56;;;;;;;;;;;;;;;11.83;100.00;101985.09;5039810;28;20302;-42
2022/10/31 02:08:25;;;;;;;;;;;;;;;11.77;100.00;101987.38;5042479;28;19917;-42
2022/10/31 02:10:50;;;;;;;;;;;;;;;11.73;100.00;101983.28;5041212;28;20231;-45
2022/10/31 02:13:16;;;;;;;;;;;;;;;11.68;100.00;101977.50;5042146;28;19925;-43
2022/10/31 02:15:43;;;;;;;;;;;;;;;11.67;100.00;101977.66;5041538;28;19924;-42
2022/10/31 02:18:08;;;;;;;;;;;;;;;11.63;100.00;101973.59;5042511;28;19921;-44
2022/10/31 02:20:49;;;;;;;;;;;;;;;11.62;100.00;101969.19;5039503;28;20167;-43
2022/10/31 02:23:27;;;;;;;;;;;;;;;11.60;100.00;101960.47;5041855;28;20012;-43
2022/10/31 02:26:11;;;;;;;;;;;;;;;11.58;100.00;101969.47;5035072;28;19924;-44
2022/10/31 02:28:53;;;;;;;;;;;;;;;11.54;100.00;101968.06;5042109;28;20559;-43
2022/10/31 02:31:37;;;;;;;;;;;;;;;11.49;100.00;101975.69;5041502;28;19944;-43
2022/10/31 02:34:13;;;;;;;;;;;;;;;11.45;100.00;101968.91;5028676;28;19921;-42
2022/10/31 02:36:58;;;;;;;;;;;;;;;11.41;100.00;101972.00;5041692;28;19916;-41
2022/10/31 02:39:35;;;;;;;;;;;;;;;11.35;100.00;101970.72;5041763;28;19928;-44
2022/10/31 02:42:04;;;;;;;;;;;;;;;11.32;100.00;101974.53;5038833;28;19920;-42
2022/10/31 02:44:36;;;;;;;;;;;;;;;11.27;100.00;101974.09;5038107;28;20471;-41
2022/10/31 02:47:05;;;;;;;;;;;;;;;11.24;100.00;101979.72;5038231;28;19920;-43
2022/10/31 02:49:42;;;;;;;;;;;;;;;11.22;100.00;101978.16;5037220;28;20318;-44
2022/10/31 02:52:26;;;;;;;;;;;;;;;11.18;100.00;101970.44;5037944;28;20446;-42
2022/10/31 02:54:51;;;;;;;;;;;;;;;11.14;100.00;101974.34;5031033;28;19913;-42
2022/10/31 02:57:19;;;;;;;;;;;;;;;11.12;100.00;101972.81;5020688;28;19921;-44
2022/10/31 02:59:48;;;;;;;;;;;;;;;11.08;100.00;101974.88;5038105;28;20431;-43
2022/10/31 03:02:14;;;;;;;;;;;;;;;11.06;100.00;101974.16;5038160;28;19917;-44
2022/10/31 03:04:57;;;;;;;;;;;;;;;11.03;100.00;101969.09;5037434;28;19913;-44
2022/10/31 03:07:32;;;;;;;;;;;;;;;11.01;100.00;101973.72;5037378;28;19975;-45
2022/10/31 03:09:57;;;;;;;;;;;;;;;11.00;100.00;101966.72;5037175;28;19921;-42
2022/10/31 03:12:29;;;;;;;;;;;;;;;11.00;100.00;101974.75;5038125;28;19970;-42
2022/10/31 03:15:03;;;;;;;;;;;;;;;10.99;100.00;101973.03;5036853;28;20422;-43
2022/10/31 03:17:51;;;;;;;;;;;;;;;10.97;100.00;101975.00;5038320;28;19974;-43
2022/10/31 03:20:19;;;;;;;;;;;;;;;10.94;100.00;101978.78;5015840;28;19919;-42
2022/10/31 03:22:45;;;;;;;;;;;;;;;10.95;100.00;101982.31;5038729;28;20542;-43
2022/10/31 03:25:11;;;;;;;;;;;;;;;10.93;100.00;101984.25;5028324;28;20107;-40
2022/10/31 03:27:38;;;;;;;;;;;;;;;10.90;100.00;101982.72;5038740;28;20307;-42
2022/10/31 03:30:05;;;;;;;;;;;;;;;10.88;100.00;101979.34;5037074;28;19928;-41
2022/10/31 03:32:33;;;;;;;;;;;;;;;10.86;100.00;101983.94;5037920;28;20000;-41
2022/10/31 03:35:00;;;;;;;;;;;;;;;10.83;100.00;101987.75;5035803;28;19916;-43
2022/10/31 03:37:27;;;;;;;;;;;;;;;10.79;100.00;101975.66;5038180;28;19921;-43
2022/10/31 03:39:54;;;;;;;;;;;;;;;10.79;100.00;101969.44;5036507;28;19917;-41
2022/10/31 03:42:25;;;;;;;;;;;;;;;10.77;100.00;101972.25;5036927;28;19974;-43
2022/10/31 03:45:11;;;;;;;;;;;;;;;10.73;100.00;101972.66;5036332;28;20438;-40
2022/10/31 03:47:37;;;;;;;;;;;;;;;10.68;100.00;101974.91;5038063;28;20517;-44
2022/10/31 03:50:03;;;;;;;;;;;;;;;10.67;100.00;101973.19;5035696;28;19917;-41
2022/10/31 03:52:35;;;;;;;;;;;;;;;10.65;100.00;101973.31;5034170;28;20273;-43
2022/10/31 03:55:23;;;;;;;;;;;;;;;10.64;100.00;101966.28;5035573;28;19920;-40
2022/10/31 03:58:02;;;;;;;;;;;;;;;10.61;100.00;101964.75;5031412;28;19917;-41
2022/10/31 04:00:27;;;;;;;;;;;;;;;10.61;100.00;101975.44;5033287;28;19916;-41
2022/10/31 04:03:01;;;;;;;;;;;;;;;10.61;100.00;101971.91;5037272;28;19917;-42
2022/10/31 04:05:27;;;;;;;;;;;;;;;10.59;100.00;101964.03;5035576;28;19931;-42
2022/10/31 04:07:54;;;;;;;;;;;;;;;10.59;100.00;101968.50;5036761;28;19920;-41
2022/10/31 04:10:21;;;;;;;;;;;;;;;10.57;100.00;101976.69;5035026;28;19929;-43
2022/10/31 04:12:50;;;;;;;;;;;;;;;10.52;100.00;101965.56;5036613;28;19917;-43
2022/10/31 04:15:15;;;;;;;;;;;;;;;10.51;100.00;101968.34;5035650;28;19920;-43
2022/10/31 04:17:43;;;;;;;;;;;;;;;10.50;100.00;101970.16;5036743;28;20544;-43
2022/10/31 04:20:09;;;;;;;;;;;;;;;10.52;100.00;101978.03;5034840;28;19932;-46
2022/10/31 04:22:34;;;;;;;;;;;;;;;10.50;100.00;101961.31;5036555;28;19917;-43
2022/10/31 04:24:59;;;;;;;;;;;;;;;10.50;100.00;101966.66;5035893;28;20383;-41
2022/10/31 04:27:25;;;;;;;;;;;;;;;10.49;100.00;101967.63;5037003;28;19963;-44
2022/10/31 04:29:50;;;;;;;;;;;;;;;10.44;100.00;101960.03;5034935;28;19917;-45
2022/10/31 04:32:15;;;;;;;;;;;;;;;10.42;100.00;101969.97;5036812;28;19923;-42
2022/10/31 04:34:40;;;;;;;;;;;;;;;10.41;100.00;101976.31;5035165;28;19989;-41
2022/10/31 04:37:06;;;;;;;;;;;;;;;10.41;100.00;101977.16;5036060;28;19993;-43
2022/10/31 04:39:31;;;;;;;;;;;;;;;10.42;100.00;101969.97;5033898;28;19921;-44
2022/10/31 04:41:56;;;;;;;;;;;;;;;10.45;100.00;101975.06;5033593;28;20396;-44
2022/10/31 04:44:21;;;;;;;;;;;;;;;10.44;100.00;101968.88;5036142;28;19924;-42
2022/10/31 04:46:46;;;;;;;;;;;;;;;10.42;100.00;101968.16;5035661;28;19927;-42
2022/10/31 04:49:12;;;;;;;;;;;;;;;10.47;100.00;101974.91;5035390;28;20326;-41
2022/10/31 04:51:37;;;;;;;;;;;;;;;10.43;100.00;101971.66;5036238;28;20442;-43
2022/10/31 04:54:02;;;;;;;;;;;;;;;10.42;100.00;101967.28;5036090;28;20303;-42
2022/10/31 04:56:27;;;;;;;;;;;;;;;10.41;100.00;101966.47;5027949;28;20322;-46
2022/10/31 04:58:52;;;;;;;;;;;;;;;10.41;100.00;101966.47;5036485;28;19921;-42
2022/10/31 05:01:18;;;;;;;;;;;;;;;10.39;100.00;101965.75;5035947;28;19939;-43
2022/10/31 05:03:43;;;;;;;;;;;;;;;10.39;100.00;101967.59;5035743;28;19947;-46
2022/10/31 05:06:08;;;;;;;;;;;;;;;10.38;100.00;101969.38;5035029;28;20011;-42
2022/10/31 05:08:33;;;;;;;;;;;;;;;10.38;100.00;101964.06;5035124;28;19921;-42
2022/10/31 05:10:59;;;;;;;;;;;;;;;10.38;100.00;101966.72;5034583;28;19959;-42
2022/10/31 05:13:24;;;;;;;;;;;;;;;10.36;100.00;101958.00;5035648;28;19916;-42
2022/10/31 05:15:49;;;;;;;;;;;;;;;10.34;100.00;101956.47;5034295;28;20011;-45
2022/10/31 05:18:15;;;;;;;;;;;;;;;10.33;100.00;101946.75;5036167;28;19913;-45
2022/10/31 05:20:40;;;;;;;;;;;;;;;10.34;100.00;101948.44;5034433;28;20362;-41
2022/10/31 05:23:05;;;;;;;;;;;;;;;10.34;100.00;101943.94;5036288;28;19917;-44
2022/10/31 05:25:30;;;;;;;;;;;;;;;10.34;100.00;101948.44;5035025;28;20357;-45
2022/10/31 05:27:56;;;;;;;;;;;;;;;10.35;100.00;101950.13;5036080;28;19917;-44
2022/10/31 05:30:22;;;;;;;;;;;;;;;10.32;100.00;101940.56;5034931;28;19924;-45
2022/10/31 05:32:49;;;;;;;;;;;;;;;10.32;100.00;101947.72;5036879;28;20296;-41
2022/10/31 05:35:18;;;;;;;;;;;;;;;10.34;100.00;101943.09;5033940;28;20367;-43
2022/10/31 05:37:43;;;;;;;;;;;;;;;10.36;100.00;101941.16;5036082;28;19920;-44
2022/10/31 05:40:10;;;;;;;;;;;;;;;10.36;100.00;101944.66;5018200;28;20567;-44
2022/10/31 05:42:35;;;;;;;;;;;;;;;10.36;100.00;101941.97;5018356;28;20316;-43
2022/10/31 05:45:00;;;;;;;;;;;;;;;10.37;100.00;101937.47;5018446;28;19929;-42
2022/10/31 05:47:26;;;;;;;;;;;;;;;10.35;100.00;101937.63;5035492;28;19967;-44
2022/10/31 05:49:51;;;;;;;;;;;;;;;10.34;100.00;101943.94;5033497;28;20470;-45
2022/10/31 05:52:16;;;;;;;;;;;;;;;10.34;100.00;101937.75;5035635;28;20394;-41
2022/10/31 05:54:42;;;;;;;;;;;;;;;10.35;100.00;101937.63;5034926;28;20008;-43
2022/10/31 05:57:07;;;;;;;;;;;;;;;10.35;100.00;101936.78;5036143;28;20303;-42
2022/10/31 05:59:32;;;;;;;;;;;;;;;10.36;100.00;101933.97;5035596;28;19944;-42
2022/10/31 06:01:57;;;;;;;;;;;;;;;10.38;100.00;101934.69;5034660;28;20117;-44
2022/10/31 06:04:22;;;;;;;;;;;;;;;10.39;100.00;101936.38;5034200;28;19943;-43
2022/10/31 06:06:48;;;;;;;;;;;;;;;10.41;100.00;101936.25;5035595;28;19917;-41
2022/10/31 06:09:13;;;;;;;;;;;;;;;10.39;100.00;101931.03;5034662;28;20000;-42
2022/10/31 06:11:38;;;;;;;;;;;;;;;10.38;100.00;101932.00;5035093;28;20367;-42
2022/10/31 06:14:04;;;;;;;;;;;;;;;10.36;100.00;101933.97;5034298;28;19928;-41
2022/10/31 06:16:29;;;;;;;;;;;;;;;10.35;100.00;101928.75;5035809;28;20032;-42
2022/10/31 06:18:54;;;;;;;;;;;;;;;10.33;100.00;101926.22;5032063;28;19924;-42
2022/10/31 06:21:19;;;;;;;;;;;;;;;10.31;100.00;101924.66;5037928;28;20015;-44
2022/10/31 06:23:45;;;;;;;;;;;;;;;10.32;100.00;101923.69;5039185;28;19920;-43
2022/10/31 06:26:10;;;;;;;;;;;;;;;10.30;100.00;101923.78;5038474;28;20469;-45
2022/10/31 06:28:35;;;;;;;;;;;;;;;10.26;100.00;101925.03;5038690;28;19931;-42
2022/10/31 06:31:01;;;;;;;;;;;;;;;10.25;100.00;101926.88;5037921;28;20038;-41
2022/10/31 06:33:26;;;;;;;;;;;;;;;10.24;100.00;101925.16;5039440;28;19924;-43
2022/10/31 06:35:51;;;;;;;;;;;;;;;10.22;100.00;101924.44;5036415;28;19921;-42
2022/10/31 06:38:16;;;;;;;;;;;;;;;10.22;100.00;101935.13;5038677;28;19928;-43
2022/10/31 06:40:41;;;;;;;;;;;;;;;10.24;100.00;101937.69;5037265;28;19920;-41
2022/10/31 06:43:06;;;;;;;;;;;;;;;10.25;100.00;101934.00;5038142;28;19962;-42
2022/10/31 06:45:32;;;;;;;;;;;;;;;10.27;100.00;101942.75;5035859;28;20019;-42
2022/10/31 06:47:57;;;;;;;;;;;;;;;10.30;100.00;101941.63;5038309;28;20354;-42
2022/10/31 06:50:23;;;;;;;;;;;;;;;10.31;100.00;101933.50;5036618;28;20125;-40
2022/10/31 06:52:55;;;;;;;;;;;;;;;10.35;100.00;101934.97;5039677;28;20085;-44
2022/10/31 06:55:22;;;;;;;;;;;;;;;10.39;100.00;101932.88;5033762;28;21423;-43
2022/10/31 06:57:54;;;;;;;;;;;;;;;10.45;100.00;101938.53;5022126;28;19927;-42
2022/10/31 07:00:19;;;;;;;;;;;;;;;10.52;100.00;101925.50;5037360;28;20151;-42
2022/10/31 07:02:54;;;;;;;;;;;;;;;10.61;100.00;101934.50;5020545;28;20011;-40
2022/10/31 07:05:20;;;;;;;;;;;;;;;10.66;100.00;101928.75;5036329;28;20381;-42
2022/10/31 07:07:45;;;;;;;;;;;;;;;10.70;100.00;101930.19;5037176;28;19924;-42
2022/10/31 07:10:10;;;;;;;;;;;;;;;10.74;100.00;101937.81;5037117;28;19927;-41
2022/10/31 07:12:35;;;;;;;;;;;;;;;10.79;100.00;101932.91;5037638;28;20263;-42
2022/10/31 07:15:00;;;;;;;;;;;;;;;10.85;100.00;101934.16;5034554;28;20435;-43
2022/10/31 07:17:25;;;;;;;;;;;;;;;10.93;100.00;101939.69;5022080;28;20300;-42
2022/10/31 07:19:51;;;;;;;;;;;;;;;10.99;100.00;101941.78;5032281;28;19921;-42
2022/10/31 07:22:16;;;;;;;;;;;;;;;11.08;100.00;101939.28;5034245;28;20558;-41
2022/10/31 07:24:41;;;;;;;;;;;;;;;11.13;100.00;101932.56;5031889;28;19967;-41
2022/10/31 07:27:06;;;;;;;;;;;;;;;11.21;100.00;101942.56;5033498;28;20418;-44
2022/10/31 07:29:31;;;;;;;;;;;;;;;11.27;100.00;101944.69;5034511;28;20207;-41
2022/10/31 07:31:56;;;;;;;;;;;;;;;11.36;100.00;101934.97;5036019;28;19912;-42
2022/10/31 07:34:22;;;;;;;;;;;;;;;11.45;100.00;101942.16;5036171;28;19917;-42
2022/10/31 07:36:47;;;;;;;;;;;;;;;11.55;100.00;101940.31;5035867;28;19905;-41
2022/10/31 07:39:12;;;;;;;;;;;;;;;11.63;100.00;101936.97;5036456;28;19956;-42
2022/10/31 07:41:37;;;;;;;;;;;;;;;11.71;100.00;101938.91;5036717;28;19920;-43
2022/10/31 07:44:02;;;;;;;;;;;;;;;11.77;100.00;101941.88;5036599;28;19913;-43
2022/10/31 07:46:28;;;;;;;;;;;;;;;11.86;100.00;101945.53;5037083;28;20016;-44
2022/10/31 07:48:53;;;;;;;;;;;;;;;11.91;100.00;101953.16;5036214;28;19933;-41
2022/10/31 07:51:18;;;;;;;;;;;;;;;11.92;100.00;101950.34;5035805;28;20003;-46
2022/10/31 07:53:43;;;;;;;;;;;;;;;11.93;100.00;101954.72;5036139;28;20011;-42
2022/10/31 07:56:08;;;;;;;;;;;;;;;11.94;100.00;101952.88;5036564;28;19924;-43
2022/10/31 07:58:34;;;;;;;;;;;;;;;11.91;100.00;101951.34;5036339;28;19909;-43
2022/10/31 08:00:59;;;;;;;;;;;;;;;11.93;100.00;101959.22;5036131;28;20159;-43
2022/10/31 08:03:24;;;;;;;;;;;;;;;11.92;100.00;101950.34;5018217;28;19913;-44
2022/10/31 08:05:49;;;;;;;;;;;;;;;11.93;100.00;101954.72;5016980;28;19920;-42
2022/10/31 08:08:14;;;;;;;;;;;;;;;11.96;100.00;101955.41;5036903;28;20379;-43
2022/10/31 08:10:40;;;;;;;;;;;;;;;12.00;100.00;101948.78;5036425;28;19913;-42
2022/10/31 08:13:09;;;;;;;;;;;;;;;12.08;100.00;101952.44;5037159;28;19928;-42
2022/10/31 08:15:37;;;;;;;;;;;;;;;12.22;100.00;101948.47;5034481;28;20383;-40
2022/10/31 08:18:03;;;;;;;;;;;;;;;12.35;100.00;101952.66;5035721;28;20427;-42
2022/10/31 08:20:28;;;;;;;;;;;;;;;12.45;100.00;101951.63;5035232;28;20098;-41
2022/10/31 08:22:58;;;;;;;;;;;;;;;12.55;100.00;101948.09;5004976;28;19912;-41
2022/10/31 08:25:23;;;;;;;;;;;;;;;12.62;100.00;101947.31;5021869;28;19928;-42
2022/10/31 08:27:52;;;;;;;;;;;;;;;12.71;100.00;101947.44;5036824;28;19913;-47
2022/10/31 08:30:18;;;;;;;;;;;;;;;12.78;100.00;101943.16;5035581;28;19963;-41
2022/10/31 08:32:44;;;;;;;;;;;;;;;12.83;100.00;101940.88;5036372;28;20326;-42
2022/10/31 08:35:09;;;;;;;;;;;;;;;12.86;100.00;101937.91;5033741;28;19917;-43
2022/10/31 08:37:34;;;;;;;;;;;;;;;12.90;100.00;101933.97;5035586;28;20311;-42
2022/10/31 08:39:59;;;;;;;;;;;;;;;12.95;100.00;101937.03;5034579;28;19927;-42
2022/10/31 08:42:24;;;;;;;;;;;;;;;13.00;100.00;101944.59;5018095;28;19913;-44
2022/10/31 08:44:50;;;;;;;;;;;;;;;13.07;100.00;101941.19;5034795;28;20217;-44
2022/10/31 08:47:15;;;;;;;;;;;;;;;13.17;100.00;101924.16;5036707;28;20231;-46
2022/10/31 08:49:40;;;;;;;;;;;;;;;13.24;100.00;101936.00;5034640;28;20049;-41
2022/10/31 08:52:05;;;;;;;;;;;;;;;13.32;100.00;101920.00;5035616;28;19912;-44
2022/10/31 08:54:31;;;;;;;;;;;;;;;13.41;100.00;101897.63;5035171;28;20004;-43
2022/10/31 08:56:56;;;;;;;;;;;;;;;13.50;100.00;101884.28;5034864;28;19913;-44
2022/10/31 08:59:21;;;;;;;;;;;;;;;13.56;100.00;101887.19;5033899;28;19935;-42
2022/10/31 09:01:46;;;;;;;;;;;;;;;13.65;100.00;101884.59;5034659;28;20298;-44
2022/10/31 09:04:12;;;;;;;;;;;;;;;13.73;100.00;101895.34;5033912;28;19913;-43
2022/10/31 09:06:37;;;;;;;;;;;;;;;13.80;100.00;101913.38;5035601;28;20374;-43
2022/10/31 09:09:02;;;;;;;;;;;;;;;13.89;100.00;101911.59;5017609;28;20526;-43
2022/10/31 09:11:29;;;;;;;;;;;;;;;13.99;100.00;101906.97;5034810;28;19924;-41
2022/10/31 09:13:54;;;;;;;;;;;;;;;14.04;100.00;101919.94;5034427;28;19966;-43
2022/10/31 09:16:19;;;;;;;;;;;;;;;14.02;100.00;101919.25;5033223;28;20015;-41
2022/10/31 09:18:45;;;;;;;;;;;;;;;14.04;100.00;101917.25;5034957;28;20222;-42
2022/10/31 09:21:10;;;;;;;;;;;;;;;14.10;100.00;101911.25;5033395;28;19960;-42
2022/10/31 09:23:35;;;;;;;;;;;;;;;14.18;100.00;101916.66;5034297;28;20271;-43
2022/10/31 09:26:01;;;;;;;;;;;;;;;14.27;100.00;101909.47;5033998;28;19921;-43
2022/10/31 09:28:26;;;;;;;;;;;;;;;14.29;100.00;101909.31;5034702;28;20247;-43
2022/10/31 09:30:52;;;;;;;;;;;;;;;14.34;100.00;101907.00;5031352;28;20276;-42
2022/10/31 09:33:18;;;;;;;;;;;;;;;14.40;100.00;101894.78;5029172;28;19912;-45
2022/10/31 09:35:43;;;;;;;;;;;;;;;14.46;100.00;101886.94;5033886;28;19916;-42
2022/10/31 09:38:10;;;;;;;;;;;;;;;14.52;100.00;101880.06;5035702;28;19912;-45
2022/10/31 09:40:40;;;;;;;;;;;;;;;14.57;100.00;101868.81;5034901;28;19913;-44
2022/10/31 09:43:20;;;;;;;;;;;;;;;14.59;100.00;101870.34;5034423;28;19929;-43
2022/10/31 09:45:45;;;;;;;;;;;;;;;14.67;100.00;101874.94;5034201;28;19917;-43
2022/10/31 09:48:13;;;;;;;;;;;;;;;14.73;100.00;101866.19;5033689;28;20367;-44
2022/10/31 09:50:47;;;;;;;;;;;;;;;14.83;100.00;101856.13;5033838;28;19979;-45
2022/10/31 09:53:23;;;;;;;;;;;;;;;14.89;100.00;101860.88;5038451;28;19920;-42
2022/10/31 09:55:49;;;;;;;;;;;;;;;14.90;100.00;101867.94;5038169;28;19916;-45
2022/10/31 09:58:16;;;;;;;;;;;;;;;14.92;100.00;101868.63;5038877;28;19913;-43
2022/10/31 10:00:43;;;;;;;;;;;;;;;14.98;100.00;101871.66;5037938;28;20140;-41
2022/10/31 10:03:14;;;;;;;;;;;;;;;15.02;100.00;101865.78;5035668;28;20396;-43
2022/10/31 10:05:43;;;;;;;;;;;;;;;15.04;100.00;101844.09;5033719;28;19988;-42
2022/10/31 10:08:11;;;;;;;;;;;;;;;15.03;100.00;101832.47;5038716;28;19913;-43
2022/10/31 10:10:39;;;;;;;;;;;;;;;15.06;100.00;101839.41;5019088;28;20011;-42
2022/10/31 10:13:17;;;;;;;;;;;;;;;15.05;100.00;101851.16;5038301;28;19970;-42
2022/10/31 10:16:02;;;;;;;;;;;;;;;15.06;100.00;101834.00;5038366;28;20310;-41
2022/10/31 10:18:39;;;;;;;;;;;;;;;15.16;100.00;101820.41;5036793;28;19919;-43
2022/10/31 10:21:21;;;;;;;;;;;;;;;15.33;100.00;101816.69;5037777;28;19917;-43
2022/10/31 10:23:52;;;;;;;;;;;;;;;15.53;100.00;101800.19;5021862;28;20273;-43
2022/10/31 10:26:19;;;;;;;;;;;;;;;15.67;100.00;101815.66;5031865;28;19979;-46
2022/10/31 10:28:47;;;;;;;;;;;;;;;15.76;100.00;101808.44;5038150;28;20008;-43
2022/10/31 10:31:17;;;;;;;;;;;;;;;15.82;100.00;101796.97;5036946;28;19913;-44
2022/10/31 10:34:14;;;;;;;;;;;;;;;15.83;100.00;101794.13;5035864;28;19982;-45
2022/10/31 10:36:45;;;;;;;;;;;;;;;15.81;100.00;101776.44;5010193;28;20007;-44
2022/10/31 10:39:46;;;;;;;;;;;;;;;15.80;100.00;101782.81;5034314;28;19913;-44
2022/10/31 10:47:44;;;;;;;;;;;;;;;15.94;100.00;101800.16;5036905;28;19959;-42
2022/10/31 10:50:15;;;;;;;;;;;;;;;15.97;100.00;101811.41;5037050;28;20177;-46
2022/10/31 10:52:44;;;;;;;;;;;;;;;16.00;100.00;101802.13;5037704;28;20571;-43
2022/10/31 10:55:28;;;;;;;;;;;;;;;16.00;100.00;101799.44;5037399;28;20382;-41
2022/10/31 10:57:56;;;;;;;;;;;;;;;16.03;100.00;101799.94;5025139;28;19924;-47
2022/10/31 11:00:27;;;;;;;;;;;;;;;16.06;100.00;101790.66;5036737;28;19913;-42
2022/10/31 11:02:54;;;;;;;;;;;;;;;16.11;100.00;101784.75;5034894;28;19952;-44
2022/10/31 11:05:22;;;;;;;;;;;;;;;16.16;100.00;101771.59;5030434;28;20201;-42
2022/10/31 11:07:48;;;;;;;;;;;;;;;16.21;100.00;101767.34;5038286;28;19923;-43
2022/10/31 11:10:14;;;;;;;;;;;;;;;16.27;100.00;101775.75;5036518;28;19916;-41
2022/10/31 11:12:39;;;;;;;;;;;;;;;16.28;100.00;101764.81;5037494;28;19920;-44
2022/10/31 11:15:18;;;;;;;;;;;;;;;16.32;100.00;101767.97;5019041;28;20437;-45
2022/10/31 11:17:47;;;;;;;;;;;;;;;16.35;100.00;101767.63;5033518;28;19921;-45
2022/10/31 11:20:12;;;;;;;;;;;;;;;16.37;100.00;101761.03;5036258;28;20665;-44
2022/10/31 11:22:37;;;;;;;;;;;;;;;16.42;100.00;101758.63;5037859;28;19948;-42
2022/10/31 11:25:21;;;;;;;;;;;;;;;16.50;100.00;101749.69;5036364;28;20299;-45
2022/10/31 11:27:57;;;;;;;;;;;;;;;16.67;100.00;101757.66;5036745;28;19944;-44
2022/10/31 11:30:23;;;;;;;;;;;;;;;16.79;100.00;101740.88;5036473;28;19913;-45
2022/10/31 11:32:50;;;;;;;;;;;;;;;16.88;100.00;101732.75;5036980;28;20214;-42
2022/10/31 11:35:18;;;;;;;;;;;;;;;16.91;100.00;101716.19;5036286;28;19912;-45
2022/10/31 11:37:44;;;;;;;;;;;;;;;16.89;100.00;101708.28;5019114;28;20360;-43
2022/10/31 11:40:20;;;;;;;;;;;;;;;16.87;100.00;101704.06;5034710;28;19958;-42
2022/10/31 11:42:45;;;;;;;;;;;;;;;16.85;100.00;101701.56;5035828;28;19928;-42
2022/10/31 11:45:16;;;;;;;;;;;;;;;16.88;100.00;101703.06;5035480;28;19917;-42
2022/10/31 11:47:42;;;;;;;;;;;;;;;16.89;100.00;101699.38;5036133;28;19913;-44
2022/10/31 11:50:10;;;;;;;;;;;;;;;16.90;100.00;101688.38;5035695;28;19951;-44
2022/10/31 11:52:37;;;;;;;;;;;;;;;16.98;100.00;101679.38;5036837;28;19912;-43
2022/10/31 11:55:11;;;;;;;;;;;;;;;17.07;100.00;101680.94;5036250;28;19999;-44
2022/10/31 11:57:50;;;;;;;;;;;;;;;17.14;100.00;101667.56;5036675;28;19913;-43
2022/10/31 12:00:23;;;;;;;;;;;;;;;17.23;100.00;101674.56;5035634;28;20363;-46
2022/10/31 12:02:48;;;;;;;;;;;;;;;17.28;100.00;101655.13;5028144;28;19999;-45
2022/10/31 12:05:19;;;;;;;;;;;;;;;17.36;100.00;101654.19;5034648;28;20020;-44
2022/10/31 12:07:45;;;;;;;;;;;;;;;17.44;100.00;101648.69;5035018;28;20003;-43
2022/10/31 12:10:11;;;;;;;;;;;;;;;17.50;100.00;101632.56;5036328;28;20415;-43
2022/10/31 12:13:06;;;;;;;;;;;;;;;17.59;100.00;101629.78;5036583;28;19933;-45
2022/10/31 12:15:33;;;;;;;;;;;;;;;17.64;100.00;101616.53;5017001;28;19928;-43
2022/10/31 12:18:15;;;;;;;;;;;;;;;17.65;100.00;101605.56;5035285;28;19917;-44
2022/10/31 12:20:40;;;;;;;;;;;;;;;17.61;100.00;101598.00;5035654;28;19999;-42
2022/10/31 12:23:18;;;;;;;;;;;;;;;17.65;100.00;101602.84;5035834;28;20015;-42
2022/10/31 12:25:53;;;;;;;;;;;;;;;17.75;100.00;101589.00;5036013;28;20505;-43
2022/10/31 12:28:36;;;;;;;;;;;;;;;17.87;100.00;101582.13;5036458;28;20426;-43
2022/10/31 12:31:17;;;;;;;;;;;;;;;18.06;100.00;101583.38;5035526;28;20371;-42
2022/10/31 12:33:45;;;;;;;;;;;;;;;18.25;100.00;101578.34;5034571;28;20264;-46
2022/10/31 12:36:10;;;;;;;;;;;;;;;18.41;100.00;101572.69;5034235;28;20776;-43
2022/10/31 12:38:46;;;;;;;;;;;;;;;18.54;100.00;101577.34;5035804;28;19936;-43